Latest Weather Observations for Laverton

IDV60801

Issued at 8:02 am EST Saturday 24 August 2019 (issued every 10 minutes, with the page automatically refreshed every 10 minutes)

About weather observations | Map of weather stations | Latest weather observations for VIC | Other Formats
Station Details ID: 087031 Name: LAVERTON RAAF Lat: -37.86 Lon: 144.76 Height: 20.1 m
Data from the previous 72 hours. | See also: Recent months at Laverton
Date/Time
EST
Temp
°C
App
Temp
°C
Dew
Point
°C
Rel
Hum
%
Delta-T
°C
Wind Press
QNH
hPa
Press
MSL
hPa
Rain since
9am
mm
Dir  Spd
km/h
Gust
km/h
Spd
kts
Gust
kts
24/08:00am 9.4 2.4 2.0 60 3.1 N 28 44 15 24 1016.5 1016.5 0.0
24/07:30am 8.7 2.5 2.1 63 2.8 N 24 37 13 20 1016.7 1016.7 0.0
24/07:00am 8.3 2.5 2.1 65 2.6 N 22 33 12 18 1016.9 1016.9 0.0
24/06:30am 8.4 2.5 2.0 64 2.7 N 22 33 12 18 1016.7 1016.7 0.0
24/06:00am 8.3 2.8 2.1 65 2.6 N 20 33 11 18 1016.9 1016.9 0.0
24/05:30am 8.4 2.6 2.2 65 2.6 N 22 33 12 18 1017.0 1017.0 0.0
24/05:00am 8.2 3.0 2.2 66 2.5 NNE 19 26 10 14 1017.1 1017.1 0.0
24/04:30am 8.5 3.3 2.3 65 2.6 NNE 19 24 10 13 1017.3 1017.3 0.0
24/04:00am 8.7 3.5 2.5 65 2.6 N 19 24 10 13 1017.2 1017.2 0.0
24/03:30am 8.9 2.8 2.5 64 2.7 N 24 37 13 20 1016.6 1016.6 0.0
24/03:00am 8.5 2.8 2.7 67 2.4 N 22 33 12 18 1016.8 1016.8 0.0
24/02:30am 8.6 2.5 3.0 68 2.4 NNE 24 35 13 19 1017.5 1017.5 0.0
24/02:00am 8.7 3.4 2.9 67 2.5 NNE 20 28 11 15 1018.0 1018.0 0.0
24/01:30am 9.1 4.0 2.9 65 2.6 NNE 19 26 10 14 1018.3 1018.3 0.0
24/01:00am 9.2 4.1 3.0 65 2.6 NNE 19 28 10 15 1018.2 1018.2 0.0
24/12:30am 9.2 4.5 3.0 65 2.7 NNE 17 22 9 12 1018.4 1018.4 0.0
24/12:00am 9.3 4.6 2.9 64 2.7 NNE 17 24 9 13 1018.6 1018.6 0.0
 
Date/Time
EST
Temp
°C
App
Temp
°C
Dew
Point
°C
Rel
Hum
%
Delta-T
°C
Wind Press
QNH
hPa
Press
MSL
hPa
Rain since
9am
mm
Dir  Spd
km/h
Gust
km/h
Spd
kts
Gust
kts
23/11:30pm 9.3 4.6 2.9 64 2.7 NNE 17 26 9 14 1018.8 1018.8 0.0
23/11:00pm 10.2 5.5 3.3 62 3.0 N 17 24 9 13 1019.2 1019.2 0.0
23/10:30pm 10.4 6.2 3.7 63 2.9 N 15 20 8 11 1019.5 1019.5 0.0
23/10:00pm 10.1 5.5 3.6 64 2.8 N 17 24 9 13 1019.8 1019.8 0.0
23/09:30pm 9.0 5.2 3.8 70 2.3 NNE 13 15 7 8 1020.3 1020.3 0.0
23/09:00pm 9.7 5.9 4.1 68 2.5 N 13 19 7 10 1020.9 1020.9 0.0
23/08:30pm 10.1 6.4 4.3 67 2.6 N 13 19 7 10 1021.0 1021.0 0.0
23/08:00pm 10.7 5.9 4.4 65 2.8 N 19 24 10 13 1020.9 1020.9 0.0
23/07:30pm 11.3 6.2 4.3 62 3.1 N 20 30 11 16 1020.6 1020.6 0.0
23/07:00pm 11.5 7.0 4.0 60 3.3 N 17 28 9 15 1020.5 1020.5 0.0
23/06:30pm 12.0 7.1 4.0 58 3.6 N 19 30 10 16 1020.1 1020.1 0.0
23/06:00pm 12.9 7.3 3.3 52 4.3 N 22 35 12 19 1019.9 1019.9 0.0
23/05:30pm 13.8 8.1 3.0 48 4.8 N 22 35 12 19 1019.7 1019.7 0.0
23/05:00pm 14.7 8.7 3.2 46 5.2 N 24 39 13 21 1019.6 1019.6 0.0
23/04:30pm 15.2 8.9 3.7 46 5.3 N 26 44 14 24 1019.5 1019.5 0.0
23/04:00pm 15.6 9.6 3.4 44 5.6 N 24 35 13 19 1019.6 1019.6 0.0
23/03:30pm 15.8 9.5 3.6 44 5.6 N 26 39 14 21 1019.8 1019.8 0.0
23/03:00pm 15.9 9.6 3.7 44 5.6 N 26 39 14 21 1020.0 1020.0 0.0
23/02:30pm 15.8 9.5 3.6 44 5.6 N 26 35 14 19 1020.1 1020.1 0.0
23/02:00pm 16.1 11.0 4.2 45 5.5 N 20 30 11 16 1020.6 1020.6 0.0
23/01:30pm 15.8 10.7 3.9 45 5.5 NNW 20 30 11 16 1021.2 1021.2 0.0
23/01:00pm 14.7 10.5 5.5 54 4.3 NNE 17 28 9 15 1021.9 1021.9 0.0
23/12:30pm 13.7 9.8 5.3 57 3.9 N 15 24 8 13 1022.9 1022.9 0.0
23/12:00pm 12.2 8.5 4.7 60 3.4 N 13 19 7 10 1023.7 1023.7 0.0
23/11:30am 11.5 8.2 4.7 63 3.1 NW 11 17 6 9 1024.5 1024.5 0.0
23/11:00am 10.7 7.4 4.4 65 2.8 NW 11 19 6 10 1025.0 1025.0 0.0
23/10:30am 10.4 6.8 5.2 70 2.4 WNW 13 19 7 10 1025.3 1025.3 0.0
23/10:00am 9.7 5.3 4.9 72 2.1 W 17 20 9 11 1025.8 1025.8 0.0
23/09:30am 9.1 5.1 4.7 74 2.0 WNW 15 19 8 10 1025.8 1025.8 0.0
23/09:00am 7.8 3.7 4.4 79 1.5 NW 15 19 8 10 1026.0 1026.0 0.0
23/08:30am 6.0 1.9 4.2 88 0.8 WNW 15 17 8 9 1026.0 1026.0 0.0
23/08:00am 3.6 0.0 2.9 95 0.3 NW 11 15 6 8 1026.0 1026.0 0.0
23/07:30am 2.2 -1.6 1.8 97 0.2 NW 11 13 6 7 1025.8 1025.8 0.0
23/07:00am 1.5 -3.2 1.2 98 0.1 NW 15 17 8 9 1025.6 1025.6 0.0
23/06:30am 1.4 -3.3 1.0 97 0.1 NW 15 17 8 9 1025.6 1025.6 0.0
23/06:00am 1.5 -3.5 1.1 97 0.1 NW 17 17 9 9 1025.6 1025.6 0.0
23/05:30am 1.4 -3.3 1.0 97 0.1 NW 15 17 8 9 1025.4 1025.4 0.0
23/05:00am 1.6 -2.7 0.9 95 0.3 NW 13 15 7 8 1025.3 1025.3 0.0
23/04:30am 2.1 -2.1 1.4 95 0.3 NW 13 17 7 9 1025.3 1025.3 0.0
23/04:00am 2.2 -1.3 1.5 95 0.3 NW 9 11 5 6 1025.4 1025.4 0.0
23/03:30am 1.7 -2.6 0.8 94 0.3 NW 13 15 7 8 1025.5 1025.5 0.0
23/03:00am 2.2 -1.7 1.2 93 0.4 WNW 11 13 6 7 1025.6 1025.6 0.0
23/02:30am 2.2 -1.7 0.9 91 0.5 WNW 11 11 6 6 1025.9 1025.9 0.0
23/02:00am 3.4 0.0 1.9 90 0.6 WNW 9 11 5 6 1026.3 1026.3 0.0
23/01:30am 3.3 -0.1 1.8 90 0.6 WNW 9 11 5 6 1026.5 1026.5 0.0
23/01:00am 3.3 -0.1 1.7 89 0.6 WNW 9 13 5 7 1026.7 1026.7 0.0
23/12:30am 3.3 -0.5 1.7 89 0.6 NW 11 13 6 7 1026.8 1026.8 0.0
23/12:00am 4.3 0.9 2.0 85 0.9 WSW 9 15 5 8 1026.8 1026.8 0.0
 
Date/Time
EST
Temp
°C
App
Temp
°C
Dew
Point
°C
Rel
Hum
%
Delta-T
°C
Wind Press
QNH
hPa
Press
MSL
hPa
Rain since
9am
mm
Dir  Spd
km/h
Gust
km/h
Spd
kts
Gust
kts
22/11:30pm 4.7 1.4 2.7 87 0.8 WSW 9 15 5 8 1026.7 1026.7 0.0
22/11:00pm 4.9 2.1 3.1 88 0.7 SSW 7 11 4 6 1026.7 1026.7 0.0
22/10:30pm 5.2 2.0 3.2 87 0.8 SSW 9 11 5 6 1027.0 1027.0 0.0
22/10:00pm 6.4 3.0 3.9 84 1.1 SSW 11 13 6 7 1027.1 1027.1 0.0
22/09:30pm 7.2 4.2 4.2 81 1.3 SSW 9 11 5 6 1027.0 1027.0 0.0
22/09:00pm 8.1 5.8 4.7 79 1.5 SSW 6 7 3 4 1027.1 1027.1 0.0
22/08:30pm 9.1 6.2 4.5 73 2.0 SSW 9 11 5 6 1027.0 1027.0 0.0
22/08:00pm 9.5 7.2 4.7 72 2.1 SSW 6 7 3 4 1026.7 1026.7 0.0
22/07:30pm 9.7 6.8 4.7 71 2.2 SSW 9 11 5 6 1026.6 1026.6 0.0
22/07:00pm 9.7 6.8 4.7 71 2.2 SSW 9 13 5 7 1026.4 1026.4 0.0
22/06:30pm 9.6 6.4 5.0 73 2.1 SSW 11 17 6 9 1026.2 1026.2 0.0
22/06:00pm 10.1 6.9 4.9 70 2.3 S 11 15 6 8 1025.9 1025.9 0.0
22/05:30pm 10.4 6.0 4.5 67 2.6 S 17 24 9 13 1025.6 1025.6 0.0
22/05:00pm 11.0 6.1 4.9 66 2.8 S 20 32 11 17 1025.4 1025.4 0.0
22/04:30pm 11.5 5.8 4.7 63 3.1 S 24 35 13 19 1025.1 1025.1 0.0
22/04:00pm 12.0 6.8 3.8 57 3.6 S 20 30 11 16 1025.0 1025.0 0.0
22/03:30pm 12.5 6.0 2.9 52 4.2 S 26 35 14 19 1024.7 1024.7 0.0
22/03:00pm 12.4 6.2 4.4 58 3.6 S 26 37 14 20 1024.6 1024.6 0.0
22/02:30pm 12.6 6.4 4.3 57 3.8 SSW 26 35 14 19 1024.4 1024.4 0.0
22/02:00pm 12.3 7.2 6.1 66 2.9 SSE 22 35 12 19 1024.4 1024.4 0.0
22/01:30pm 11.8 6.1 4.8 62 3.2 SSW 24 35 13 19 1024.2 1024.2 0.0
22/01:00pm 12.5 6.4 5.0 60 3.4 SSW 26 43 14 23 1024.2 1024.2 0.0
22/12:30pm 11.6 4.1 4.3 61 3.3 SSW 33 46 18 25 1024.5 1024.5 0.0
22/12:00pm 12.4 5.7 5.6 63 3.2 SSW 30 44 16 24 1024.2 1024.2 0.0
22/11:30am 11.4 5.0 5.3 66 2.8 SW 28 39 15 21 1024.3 1024.3 0.0
22/11:00am 11.8 5.7 5.0 63 3.1 SW 26 35 14 19 1024.2 1024.2 0.0
22/10:30am 12.3 7.6 5.2 62 3.3 SW 19 28 10 15 1023.9 1023.9 0.0
22/10:00am 11.2 5.4 4.4 63 3.0 SW 24 35 13 19 1023.6 1023.6 0.0
22/09:30am 10.8 5.7 4.3 64 2.9 SW 20 30 11 16 1023.1 1023.1 0.0
22/09:00am 10.5 5.7 4.9 68 2.5 SW 19 26 10 14 1022.8 1022.8 0.4
22/08:30am 9.9 5.7 5.5 74 2.0 WSW 17 24 9 13 1022.6 1022.6 0.4
22/08:00am 9.6 6.1 5.4 75 1.9 SW 13 20 7 11 1022.2 1022.2 0.4
22/07:30am 9.1 4.9 5.5 78 1.6 SW 17 20 9 11 1021.7 1021.7 0.4
22/07:00am 9.0 5.8 6.8 86 1.0 SW 13 19 7 10 1021.2 1021.2 0.4
22/06:42am 9.1 4.8 7.2 88 0.9 SW 19 28 10 15 1021.0 1021.0 0.4
22/06:30am 9.2 3.6 7.2 87 0.9 SSW 26 35 14 19 1021.0 1021.0 0.4
22/06:28am 9.3 3.7 7.1 86 1.0 SSW 26 35 14 19 1021.0 1021.0 0.4
22/06:00am 9.6 6.1 7.0 84 1.2 WSW 15 19 8 10 1020.5 1020.5 0.2
22/05:30am 9.5 6.5 7.8 89 0.8 WSW 13 17 7 9 1020.0 1020.0 0.2
22/05:25am 9.5 6.2 7.9 90 0.8 SW 15 22 8 12 1019.9 1019.9 0.2
22/05:02am 10.2 6.4 7.4 83 1.3 WSW 17 24 9 13 1019.7 1019.7 0.0
22/05:00am 10.3 6.5 7.4 82 1.4 WSW 17 24 9 13 1019.7 1019.7 0.0
22/04:30am 10.1 6.6 7.0 81 1.5 WSW 15 24 8 13 1019.1 1019.1 0.0
22/04:00am 10.5 6.2 7.0 79 1.7 WSW 19 32 10 17 1018.6 1018.6 0.0
22/03:30am 10.9 5.7 7.2 78 1.8 WSW 24 35 13 19 1018.5 1018.5 0.0
22/03:00am 11.3 5.4 7.4 77 1.9 SW 28 43 15 23 1018.1 1018.1 0.0
22/02:30am 11.5 6.1 8.2 80 1.6 WSW 26 39 14 21 1018.2 1018.2 0.0
22/02:00am 11.8 4.8 8.5 80 1.6 WSW 35 52 19 28 1018.1 1018.1 0.0
22/01:35am 12.3 6.6 8.2 76 2.0 WSW 28 48 15 26 1018.1 1018.1 0.0
22/01:30am 12.2 6.9 8.3 77 1.9 WSW 26 41 14 22 1018.0 1018.0 0.0
22/01:05am 12.1 6.5 8.6 79 1.7 SW 28 46 15 25 1018.1 1018.1 0.0
22/01:00am 12.2 6.5 8.5 78 1.8 SW 28 44 15 24 1018.0 1018.0 0.0
22/12:30am 12.6 4.2 8.9 78 1.9 WSW 43 69 23 37 1017.5 1017.5 0.0
22/12:04am 12.4 6.5 9.2 81 1.6 WSW 30 52 16 28 1017.4 1017.4 0.0
22/12:00am 12.5 6.6 9.0 79 1.8 WSW 30 46 16 25 1017.3 1017.3 0.0
 
Date/Time
EST
Temp
°C
App
Temp
°C
Dew
Point
°C
Rel
Hum
%
Delta-T
°C
Wind Press
QNH
hPa
Press
MSL
hPa
Rain since
9am
mm
Dir  Spd
km/h
Gust
km/h
Spd
kts
Gust
kts
21/11:30pm 12.6 6.2 8.7 77 1.9 W 32 52 17 28 1017.0 1017.0 0.0
21/11:01pm 12.5 6.1 8.4 76 2.0 W 32 50 17 27 1016.9 1016.9 0.0
21/11:00pm 12.6 6.0 8.5 76 2.0 W 33 50 18 27 1016.9 1016.9 0.0
21/10:30pm 12.7 6.0 8.2 74 2.2 W 33 54 18 29 1017.1 1017.1 0.0
21/10:00pm 13.0 6.4 7.7 70 2.6 W 32 50 17 27 1017.4 1017.4 0.0
21/09:57pm 13.0 6.3 7.5 69 2.7 W 32 50 17 27 1017.4 1017.4 0.0
21/09:30pm 13.0 6.2 7.5 69 2.7 W 33 46 18 25 1017.2 1017.2 0.0
21/09:00pm 13.0 6.4 7.9 71 2.5 W 32 50 17 27 1017.3 1017.3 0.0
21/08:34pm 12.8 7.0 7.9 72 2.4 W 28 46 15 25 1017.6 1017.6 0.0
21/08:30pm 13.0 7.2 7.9 71 2.5 W 28 39 15 21 1017.7 1017.7 0.0
21/08:05pm 13.2 7.4 7.9 70 2.6 WSW 28 46 15 25 1018.2 1018.2 0.0
21/08:00pm 13.2 6.6 7.6 69 2.7 WSW 32 46 17 25 1018.2 1018.2 0.0
21/07:30pm 13.2 7.3 7.6 69 2.7 W 28 39 15 21 1018.1 1018.1 0.0
21/07:00pm 12.8 8.4 7.3 69 2.7 W 20 28 11 15 1018.4 1018.4 0.0
21/06:30pm 12.8 7.5 6.8 67 2.9 W 24 35 13 19 1018.5 1018.5 0.0
21/06:02pm 13.0 6.1 6.6 65 3.1 W 32 50 17 27 1018.2 1018.2 0.0
21/06:00pm 13.1 5.6 6.5 64 3.1 W 35 50 19 27 1018.2 1018.2 0.0
21/05:30pm 13.6 6.1 6.2 61 3.5 WSW 35 54 19 29 1018.1 1018.1 0.0
21/05:16pm 14.1 7.6 6.5 60 3.7 WSW 30 52 16 28 1018.1 1018.1 0.0
21/05:00pm 14.2 7.4 6.8 61 3.6 WSW 32 46 17 25 1017.9 1017.9 0.0
21/04:30pm 14.4 8.3 6.7 60 3.7 WSW 28 48 15 26 1018.3 1018.3 0.0
21/04:20pm 14.5 7.6 7.1 61 3.6 WSW 33 52 18 28 1018.3 1018.3 0.0
21/04:00pm 14.7 7.6 6.5 58 4.0 WSW 33 50 18 27 1018.2 1018.2 0.0
21/03:41pm 15.1 7.6 6.4 56 4.2 WSW 35 57 19 31 1018.5 1018.5 0.0
21/03:30pm 15.1 8.3 6.7 57 4.1 WSW 32 48 17 26 1018.6 1018.6 0.0
21/03:26pm 15.0 8.8 6.3 56 4.2 WSW 28 48 15 26 1018.5 1018.5 0.0
21/03:00pm 15.0 8.0 5.8 54 4.4 WSW 32 48 17 26 1018.2 1018.2 0.0
21/02:30pm 15.3 7.7 5.8 53 4.6 WSW 35 54 19 29 1018.3 1018.3 0.0
21/02:00pm 16.0 10.0 7.2 56 4.4 SW 28 48 15 26 1018.5 1018.5 0.0
21/01:31pm 16.1 9.6 6.3 52 4.8 WSW 30 48 16 26 1018.8 1018.8 0.0
21/01:30pm 16.1 9.2 6.3 52 4.8 WSW 32 48 17 26 1018.8 1018.8 0.0
21/01:00pm 15.5 7.7 6.5 55 4.4 WSW 37 56 20 30 1019.1 1019.1 0.0
21/12:41pm 15.6 8.7 7.4 58 4.1 WSW 33 54 18 29 1019.2 1019.2 0.0
21/12:30pm 15.6 9.0 7.6 59 4.0 WSW 32 44 17 24 1019.3 1019.3 0.0
21/12:00pm 14.6 8.8 8.1 65 3.2 SW 28 41 15 22 1019.9 1019.9 0.0
21/11:30am 14.8 8.0 7.6 62 3.6 WSW 33 52 18 28 1019.8 1019.8 0.0
21/11:06am 14.6 8.5 8.1 65 3.3 WSW 30 48 16 26 1020.0 1020.0 0.0
21/11:00am 14.2 7.1 8.2 67 3.0 SW 35 50 19 27 1020.0 1020.0 0.0
21/10:54am 14.0 7.5 8.0 67 3.0 SW 32 50 17 27 1020.1 1020.1 0.0
21/10:30am 13.8 8.1 8.4 70 2.7 WSW 28 43 15 23 1019.8 1019.8 0.0
21/10:00am 13.7 8.9 9.0 73 2.4 WSW 24 37 13 20 1019.8 1019.8 0.0
21/09:30am 13.1 8.3 8.8 75 2.2 WSW 24 33 13 18 1019.9 1019.9 0.0
21/09:00am 12.6 7.1 9.1 79 1.8 WSW 28 41 15 22 1019.9 1019.9 0.0
21/08:30am 12.2 7.6 9.6 84 1.3 WSW 24 35 13 19 1019.9 1019.9 0.0

Other formats

Comma delimited format used in spreadsheet applications
http://www.bom.gov.au/fwo/IDV60801/IDV60801.94865.axf

JavaScript Object Notation format (JSON) in row-major order
http://www.bom.gov.au/fwo/IDV60801/IDV60801.94865.json

Data quality

Most of these data are generated automatically and are frequently updated. Quality checks on data are not normally performed. It is possible for incorrect values to appear. Refer to information at About Latest Weather Observations and please check the disclaimer before using these data.